createdAt,value
2022-09-23T00:02:08.215Z,95488.75
2022-09-23T00:04:35.992Z,95493.03
2022-09-23T00:07:05.272Z,95488.78
2022-09-23T00:09:33.234Z,95484.69
2022-09-23T00:12:03.721Z,95481.66
2022-09-23T00:14:33.677Z,95478.19
2022-09-23T00:17:01.495Z,95484.66
2022-09-23T00:19:29.447Z,95479.81
2022-09-23T00:21:59.403Z,95487.88
2022-09-23T00:24:32.268Z,95472.59
2022-09-23T00:27:00.310Z,95467.75
2022-09-23T00:29:28.084Z,95475.34
2022-09-23T00:31:55.864Z,95475.44
2022-09-23T00:34:23.642Z,95472.38
2022-09-23T00:36:51.443Z,95471.75
2022-09-23T00:39:19.160Z,95465.53
2022-09-23T00:41:48.301Z,95468.22
2022-09-23T00:44:49.093Z,95470.25
2022-09-23T00:47:22.207Z,95464.31
2022-09-23T00:50:01.725Z,95462.13
2022-09-23T00:52:31.611Z,95457.22
2022-09-23T00:55:00.989Z,95448.25
2022-09-23T00:57:31.217Z,95456.31
2022-09-23T00:59:59.111Z,95453.03
2022-09-23T01:02:28.281Z,95447.94
2022-09-23T01:04:56.413Z,95449.72
2022-09-23T01:07:24.230Z,95449.31
2022-09-23T01:09:52.108Z,95449.88
2022-09-23T01:12:31.365Z,95444.94
2022-09-23T01:15:10.216Z,95433.63
2022-09-23T01:17:47.468Z,95438.22
2022-09-23T01:20:41.869Z,95438.44
2022-09-23T01:23:28.458Z,95430.41
2022-09-23T01:26:20.270Z,95429.59
2022-09-23T01:29:05.032Z,95423.88
2022-09-23T01:31:43.921Z,95425.09
2022-09-23T01:34:16.603Z,95429.09
2022-09-23T01:36:49.281Z,95420.19
2022-09-23T01:39:23.295Z,95420.03
2022-09-23T01:41:58.201Z,95420.69
2022-09-23T01:44:33.272Z,95413.50
2022-09-23T01:47:11.035Z,95410.59
2022-09-23T01:49:46.293Z,95418.34
2022-09-23T01:52:19.272Z,95416.84
2022-09-23T01:54:54.131Z,95402.91
2022-09-23T01:57:27.357Z,95404.63
2022-09-23T02:00:00.211Z,95406.50
2022-09-23T02:02:49.318Z,95402.19
2022-09-23T02:05:23.401Z,95405.81
2022-09-23T02:07:59.472Z,95408.22
2022-09-23T02:10:35.983Z,95410.38
2022-09-23T02:13:08.834Z,95417.16
2022-09-23T02:15:42.967Z,95413.31
2022-09-23T02:18:16.166Z,95414.78
2022-09-23T02:20:45.009Z,95404.34
2022-09-23T02:23:14.535Z,95410.84
2022-09-23T02:25:53.101Z,95404.22
2022-09-23T02:28:32.615Z,95410.34
2022-09-23T02:31:08.646Z,95413.94
2022-09-23T02:33:41.992Z,95411.09
2022-09-23T02:36:13.608Z,95416.72
2022-09-23T02:38:46.541Z,95416.59
2022-09-23T02:41:20.461Z,95409.44
2022-09-23T02:43:54.852Z,95409.25
2022-09-23T02:46:23.925Z,95413.50
2022-09-23T02:48:56.760Z,95406.72
2022-09-23T02:51:25.741Z,95411.63
2022-09-23T02:53:56.310Z,95405.53
2022-09-23T02:56:24.075Z,95397.94
2022-09-23T02:58:54.532Z,95401.63
2022-09-23T03:01:39.229Z,95400.19
2022-09-23T03:04:18.286Z,95401.94
2022-09-23T03:06:58.106Z,95399.31
2022-09-23T03:09:32.110Z,95399.53
2022-09-23T03:12:11.098Z,95394.13
2022-09-23T03:14:49.143Z,95397.19
2022-09-23T03:17:25.163Z,95389.09
2022-09-23T03:19:59.813Z,95393.28
2022-09-23T03:22:32.194Z,95380.91
2022-09-23T03:25:04.625Z,95393.28
2022-09-23T03:27:35.440Z,95391.28
2022-09-23T03:30:05.129Z,95392.44
2022-09-23T03:32:35.647Z,95389.75
2022-09-23T03:35:06.552Z,95393.94
2022-09-23T03:37:39.991Z,95391.69
2022-09-23T03:40:14.513Z,95385.91
2022-09-23T03:42:43.281Z,95385.44
2022-09-23T03:45:17.132Z,95388.00
2022-09-23T03:47:48.916Z,95381.97
2022-09-23T03:50:18.334Z,95389.56
2022-09-23T03:52:46.393Z,95385.75
2022-09-23T03:55:16.319Z,95382.25
2022-09-23T03:57:44.652Z,95379.16
2022-09-23T04:00:14.417Z,95382.34
2022-09-23T04:02:42.543Z,95381.25
2022-09-23T04:05:12.057Z,95388.44
2022-09-23T04:07:41.334Z,95376.91
2022-09-23T04:10:10.267Z,95380.72
2022-09-23T04:12:38.820Z,95366.31
2022-09-23T04:15:07.900Z,95372.06
2022-09-23T04:17:35.820Z,95356.00
2022-09-23T04:20:03.679Z,95365.03
2022-09-23T04:22:31.621Z,95379.72
2022-09-23T04:25:00.951Z,95361.00
2022-09-23T04:27:28.799Z,95369.91
2022-09-23T04:29:56.581Z,95353.53
2022-09-23T04:32:24.461Z,95368.16
2022-09-23T04:34:52.227Z,95351.16
2022-09-23T04:37:19.941Z,95363.69
2022-09-23T04:39:47.695Z,95362.09
2022-09-23T04:42:16.839Z,95358.97
2022-09-23T04:44:44.570Z,95373.38
2022-09-23T04:47:12.314Z,95371.66
2022-09-23T04:49:40.039Z,95365.50
2022-09-23T04:52:07.873Z,95369.25
2022-09-23T04:54:35.615Z,95367.28
2022-09-23T04:57:03.436Z,95371.13
2022-09-23T04:59:32.533Z,95371.72
2022-09-23T05:02:00.401Z,95377.72
2022-09-23T05:04:28.491Z,95374.09
2022-09-23T05:06:59.491Z,95370.50
2022-09-23T05:09:31.732Z,95373.44
2022-09-23T05:11:59.580Z,95380.75
2022-09-23T05:14:27.380Z,95379.94
2022-09-23T05:16:56.564Z,95378.06
2022-09-23T05:19:24.345Z,95387.69
2022-09-23T05:21:52.135Z,95381.81
2022-09-23T05:24:19.848Z,95378.06
2022-09-23T05:26:48.166Z,95389.25
2022-09-23T05:29:16.013Z,95383.94
2022-09-23T05:31:43.834Z,95376.25
2022-09-23T05:34:12.977Z,95386.31
2022-09-23T05:36:40.724Z,95382.84
2022-09-23T05:39:08.927Z,95381.97
2022-09-23T05:41:37.746Z,95393.69
2022-09-23T05:44:06.032Z,95387.03
2022-09-23T05:46:34.283Z,95387.69
2022-09-23T05:49:08.186Z,95387.13
2022-09-23T05:51:37.493Z,95384.78
2022-09-23T05:54:06.285Z,95378.34
2022-09-23T05:56:35.309Z,95397.78
2022-09-23T05:59:05.171Z,95399.88
2022-09-23T06:01:35.242Z,95396.88
2022-09-23T06:04:04.937Z,95399.56
2022-09-23T06:06:34.465Z,95393.81
2022-09-23T06:09:04.468Z,95391.72
2022-09-23T06:11:33.448Z,95393.09
2022-09-23T06:14:02.344Z,95399.38
2022-09-23T06:16:32.630Z,95396.34
2022-09-23T06:19:05.853Z,95401.84
2022-09-23T06:21:35.664Z,95389.28
2022-09-23T06:24:06.377Z,95386.38
2022-09-23T06:26:35.231Z,95392.97
2022-09-23T06:29:04.219Z,95377.31
2022-09-23T06:31:32.916Z,95367.44
2022-09-23T06:34:12.431Z,95381.97
2022-09-23T06:36:44.351Z,95377.56
2022-09-23T06:39:15.658Z,95381.59
2022-09-23T06:41:44.054Z,95385.47
2022-09-23T06:44:14.731Z,95391.38
2022-09-23T06:46:42.652Z,95394.41
2022-09-23T06:49:13.330Z,95395.97
2022-09-23T06:51:41.395Z,95393.38
2022-09-23T06:54:09.462Z,95383.97
2022-09-23T06:56:39.697Z,95383.13
2022-09-23T06:59:10.346Z,95379.06
2022-09-23T07:01:38.364Z,95385.84
2022-09-23T07:04:07.356Z,95378.91
2022-09-23T07:06:35.480Z,95382.94
2022-09-23T07:09:03.363Z,95371.88
2022-09-23T07:11:31.204Z,95383.78
2022-09-23T07:14:00.280Z,95377.53
2022-09-23T07:16:28.058Z,95381.28
2022-09-23T07:18:56.203Z,95379.84
2022-09-23T07:21:24.156Z,95382.28
2022-09-23T07:23:52.128Z,95371.97
2022-09-23T07:26:21.128Z,95379.00
2022-09-23T07:28:48.899Z,95380.00
2022-09-23T07:31:30.369Z,95383.69
2022-09-23T07:34:02.023Z,95378.88
2022-09-23T07:36:32.836Z,95387.94
2022-09-23T07:39:03.182Z,95386.28
2022-09-23T07:41:32.099Z,95384.81
2022-09-23T07:44:01.103Z,95386.44
2022-09-23T07:46:32.373Z,95392.69
2022-09-23T07:49:01.085Z,95391.41
2022-09-23T07:51:35.441Z,95393.28
2022-09-23T07:54:05.300Z,95394.22
2022-09-23T07:56:33.300Z,95396.63
2022-09-23T07:59:01.633Z,95392.66
2022-09-23T08:01:34.159Z,95393.97
2022-09-23T08:04:05.650Z,95390.50
2022-09-23T08:06:34.198Z,95393.69
2022-09-23T08:09:02.657Z,95405.41
2022-09-23T08:11:31.264Z,95404.44
2022-09-23T08:13:59.107Z,95409.00
2022-09-23T08:16:27.113Z,95411.22
2022-09-23T08:18:56.359Z,95412.22
2022-09-23T08:21:24.293Z,95406.53
2022-09-23T08:23:52.042Z,95401.41
2022-09-23T08:26:22.263Z,95408.91
2022-09-23T08:28:50.796Z,95410.31
2022-09-23T08:31:18.688Z,95403.59
2022-09-23T08:33:46.583Z,95401.44
2022-09-23T08:36:15.708Z,95415.50
2022-09-23T08:38:43.479Z,95412.50
2022-09-23T08:41:20.968Z,95404.59
2022-09-23T08:43:54.313Z,95404.19
2022-09-23T08:46:27.193Z,95408.94
2022-09-23T08:48:56.756Z,95401.59
2022-09-23T08:51:32.491Z,95392.50
2022-09-23T08:54:00.868Z,95396.25
2022-09-23T08:56:30.220Z,95395.66
2022-09-23T08:59:05.729Z,95396.63
2022-09-23T09:01:41.141Z,95393.97
2022-09-23T09:04:17.537Z,95394.41
2022-09-23T09:06:53.961Z,95390.97
2022-09-23T09:09:29.092Z,95394.44
2022-09-23T09:12:03.105Z,95387.69
2022-09-23T09:14:38.613Z,95391.84
2022-09-23T09:17:09.045Z,95389.75
2022-09-23T09:19:53.377Z,95396.34
2022-09-23T09:22:31.254Z,95388.00
2022-09-23T09:25:06.121Z,95389.16
2022-09-23T09:27:34.664Z,95390.56
2022-09-23T09:30:02.886Z,95375.66
2022-09-23T09:32:47.371Z,95387.00
2022-09-23T09:35:25.843Z,95376.25
2022-09-23T09:37:55.902Z,95372.75
2022-09-23T09:40:23.717Z,95377.03
2022-09-23T09:42:51.694Z,95367.97
2022-09-23T09:45:30.783Z,95370.22
2022-09-23T09:48:10.854Z,95376.91
2022-09-23T09:50:44.442Z,95366.06
2022-09-23T09:53:25.624Z,95360.25
2022-09-23T09:56:04.941Z,95364.19
2022-09-23T09:58:44.031Z,95361.63
2022-09-23T10:01:20.293Z,95358.97
2022-09-23T10:03:48.699Z,95360.25
2022-09-23T10:06:22.170Z,95355.94
2022-09-23T10:09:14.767Z,95346.66
2022-09-23T10:11:43.044Z,95346.81
2022-09-23T10:14:18.028Z,95351.56
2022-09-23T10:16:47.170Z,95353.34
2022-09-23T10:19:25.031Z,95352.34
2022-09-23T10:21:59.846Z,95340.81
2022-09-23T10:24:32.135Z,95341.63
2022-09-23T10:27:03.093Z,95340.78
2022-09-23T10:29:32.778Z,95336.94
2022-09-23T10:32:20.627Z,95339.41
2022-09-23T10:34:52.459Z,95339.41
2022-09-23T10:37:28.579Z,95342.66
2022-09-23T10:40:15.310Z,95340.66
2022-09-23T10:43:33.516Z,95327.69
2022-09-23T10:46:22.342Z,95333.38
2022-09-23T10:49:04.656Z,95329.78
2022-09-23T10:51:41.035Z,95327.53
2022-09-23T10:54:18.681Z,95324.50
2022-09-23T10:56:52.608Z,95314.22
2022-09-23T10:59:47.566Z,95320.78
2022-09-23T11:02:34.130Z,95312.88
2022-09-23T11:05:25.518Z,95313.59
2022-09-23T11:08:03.395Z,95323.09
2022-09-23T11:11:09.929Z,95324.34
2022-09-23T11:13:58.858Z,95315.13
2022-09-23T11:16:41.147Z,95312.13
2022-09-23T11:19:40.173Z,95316.25
2022-09-23T11:22:22.960Z,95317.34
2022-09-23T11:25:23.929Z,95317.13
2022-09-23T11:28:10.478Z,95298.78
2022-09-23T11:30:50.419Z,95300.91
2022-09-23T11:33:32.485Z,95299.25
2022-09-23T11:36:06.744Z,95287.84
2022-09-23T11:38:40.810Z,95291.63
2022-09-23T11:41:18.591Z,95293.63
2022-09-23T11:43:51.385Z,95284.97
2022-09-23T11:46:31.292Z,95278.72
2022-09-23T11:49:07.357Z,95286.50
2022-09-23T11:51:41.480Z,95286.22
2022-09-23T11:54:20.535Z,95274.19
2022-09-23T11:56:54.002Z,95272.47
2022-09-23T11:59:39.431Z,95272.03
2022-09-23T12:02:22.351Z,95271.88
2022-09-23T12:05:01.259Z,95264.44
2022-09-23T12:07:40.541Z,95259.94
2022-09-23T12:10:09.825Z,95269.28
2022-09-23T12:12:47.877Z,95263.59
2022-09-23T12:15:27.425Z,95254.75
2022-09-23T12:18:23.509Z,95258.84
2022-09-23T12:21:18.303Z,95248.81
2022-09-23T12:24:19.116Z,95251.34
2022-09-23T12:26:51.220Z,95240.97
2022-09-23T12:29:19.307Z,95240.72
2022-09-23T12:31:49.716Z,95233.22
2022-09-23T12:34:25.938Z,95231.97
2022-09-23T12:36:53.862Z,95233.00
2022-09-23T12:39:30.690Z,95228.72
2022-09-23T12:42:01.582Z,95229.91
2022-09-23T12:44:39.368Z,95232.09
2022-09-23T12:47:32.299Z,95233.88
2022-09-23T12:50:02.009Z,95226.72
2022-09-23T12:52:31.868Z,95222.06
2022-09-23T12:55:34.476Z,95229.06
2022-09-23T12:58:02.263Z,95219.91
2022-09-23T13:00:34.281Z,95216.72
2022-09-23T13:03:20.256Z,95211.34
2022-09-23T13:06:10.258Z,95214.81
2022-09-23T13:08:40.409Z,95214.81
2022-09-23T13:11:19.481Z,95211.94
2022-09-23T13:13:50.948Z,95195.25
2022-09-23T13:16:25.320Z,95191.94
2022-09-23T13:18:54.582Z,95194.28
2022-09-23T13:21:55.520Z,95190.69
2022-09-23T13:24:40.486Z,95185.47
2022-09-23T13:27:16.734Z,95182.56
2022-09-23T13:29:48.155Z,95187.22
2022-09-23T13:32:18.256Z,95174.28
2022-09-23T13:34:55.921Z,95167.84
2022-09-23T13:37:25.784Z,95168.06
2022-09-23T13:40:08.525Z,95170.16
2022-09-23T13:42:41.931Z,95170.53
2022-09-23T13:45:16.444Z,95158.25
2022-09-23T13:47:46.030Z,95155.19
2022-09-23T13:50:19.221Z,95154.31
2022-09-23T13:52:52.004Z,95163.28
2022-09-23T13:55:33.262Z,95150.09
2022-09-23T13:58:04.279Z,95161.34
2022-09-23T14:00:37.731Z,95148.25
2022-09-23T14:03:31.158Z,95169.50
2022-09-23T14:06:03.172Z,95146.88
2022-09-23T14:08:32.483Z,95144.59
2022-09-23T14:11:04.082Z,95143.56
2022-09-23T14:13:38.537Z,95145.06
2022-09-23T14:16:06.675Z,95142.22
2022-09-23T14:18:38.134Z,95153.13
2022-09-23T14:21:06.514Z,95148.25
2022-09-23T14:23:34.340Z,95149.66
2022-09-23T14:26:03.611Z,95138.56
2022-09-23T14:28:31.532Z,95133.09
2022-09-23T14:31:00.677Z,95135.56
2022-09-23T14:33:32.113Z,95130.03
2022-09-23T14:36:06.583Z,95126.09
2022-09-23T14:38:51.855Z,95125.47
2022-09-23T14:41:26.566Z,95128.31
2022-09-23T14:43:58.204Z,95121.56
2022-09-23T14:46:28.203Z,95117.75
2022-09-23T14:48:59.758Z,95116.94
2022-09-23T14:51:38.379Z,95122.47
2022-09-23T14:54:42.812Z,95123.50
2022-09-23T14:57:27.324Z,95110.94
2022-09-23T15:00:04.760Z,95114.72
2022-09-23T15:02:35.606Z,95109.56
2022-09-23T15:05:19.794Z,95119.16
2022-09-23T15:07:53.121Z,95120.41
2022-09-23T15:10:24.629Z,95110.72
2022-09-23T15:12:56.165Z,95107.50
2022-09-23T15:15:29.292Z,95102.81
2022-09-23T15:18:03.690Z,95094.22
2022-09-23T15:20:31.902Z,95103.72
2022-09-23T15:22:59.669Z,95103.00
2022-09-23T15:25:32.074Z,95095.00
2022-09-23T15:28:04.232Z,95095.50
2022-09-23T15:30:32.853Z,95094.84
2022-09-23T15:33:00.990Z,95096.09
2022-09-23T15:35:31.993Z,95083.59
2022-09-23T15:38:02.159Z,95085.75
2022-09-23T15:40:32.636Z,95099.72
2022-09-23T15:43:08.410Z,95092.50
2022-09-23T15:45:40.258Z,95086.28
2022-09-23T15:48:12.623Z,95092.16
2022-09-23T15:50:42.345Z,95085.53
2022-09-23T15:53:15.480Z,95088.63
2022-09-23T15:55:43.492Z,95081.84
2022-09-23T15:58:12.896Z,95087.88
2022-09-23T16:00:40.780Z,95079.69
2022-09-23T16:03:08.714Z,95084.22
2022-09-23T16:05:38.221Z,95089.41
2022-09-23T16:08:09.240Z,95089.41
2022-09-23T16:10:38.296Z,95098.06
2022-09-23T16:13:08.998Z,95082.78
2022-09-23T16:15:39.147Z,95088.56
2022-09-23T16:18:07.781Z,95092.22
2022-09-23T16:20:37.722Z,95085.69
2022-09-23T16:23:09.807Z,95089.94
2022-09-23T16:25:41.100Z,95094.78
2022-09-23T16:28:08.881Z,95099.19
2022-09-23T16:30:38.035Z,95092.03
2022-09-23T16:33:05.781Z,95093.38
2022-09-23T16:35:34.622Z,95095.03
2022-09-23T16:38:02.499Z,95090.00
2022-09-23T16:40:31.993Z,95094.44
2022-09-23T16:43:02.223Z,95094.28
2022-09-23T16:45:31.153Z,95081.81
2022-09-23T16:48:00.542Z,95089.13
2022-09-23T16:50:29.316Z,95086.84
2022-09-23T16:52:57.155Z,95090.31
2022-09-23T16:55:27.346Z,95080.56
2022-09-23T16:57:55.464Z,95083.34
2022-09-23T17:00:41.446Z,95079.66
2022-09-23T17:03:30.725Z,95081.47
2022-09-23T17:05:59.088Z,95082.28
2022-09-23T17:08:26.958Z,95076.13
2022-09-23T17:10:59.452Z,95075.53
2022-09-23T17:13:28.108Z,95075.84
2022-09-23T17:15:56.377Z,95081.78
2022-09-23T17:18:26.155Z,95087.44
2022-09-23T17:21:00.825Z,95079.50
2022-09-23T17:23:29.630Z,95094.09
2022-09-23T17:25:57.554Z,95088.16
2022-09-23T17:28:25.871Z,95095.38
2022-09-23T17:30:58.700Z,95105.69
2022-09-23T17:33:33.098Z,95099.81
2022-09-23T17:36:01.594Z,95101.97
2022-09-23T17:38:29.828Z,95101.97
2022-09-23T17:41:01.123Z,95094.59
2022-09-23T17:43:29.364Z,95089.88
2022-09-23T17:45:59.162Z,95104.13
2022-09-23T17:48:29.787Z,95101.63
2022-09-23T17:50:58.480Z,95103.66
2022-09-23T17:53:27.001Z,95114.88
2022-09-23T17:55:59.369Z,95107.56
2022-09-23T17:58:28.926Z,95107.28
2022-09-23T18:01:00.434Z,95105.63
2022-09-23T18:03:31.783Z,95108.06
2022-09-23T18:06:08.327Z,95096.59
2022-09-23T18:08:36.246Z,95102.16
2022-09-23T18:11:12.555Z,95099.44
2022-09-23T18:13:40.402Z,95089.97
2022-09-23T18:16:08.420Z,95102.13
2022-09-23T18:18:37.705Z,95100.81
2022-09-23T18:21:06.786Z,95097.25
2022-09-23T18:23:34.806Z,95087.94
2022-09-23T18:26:02.683Z,95090.59
2022-09-23T18:28:34.647Z,95092.56
2022-09-23T18:31:03.141Z,95088.81
2022-09-23T18:33:31.003Z,95094.56
2022-09-23T18:36:02.261Z,95093.03
2022-09-23T18:38:30.353Z,95080.63
2022-09-23T18:40:59.321Z,95089.75
2022-09-23T18:43:37.412Z,95089.97
2022-09-23T18:46:09.428Z,95093.34
2022-09-23T18:48:55.157Z,95090.41
2022-09-23T18:51:25.857Z,95101.28
2022-09-23T18:53:57.576Z,95101.69
2022-09-23T18:56:27.703Z,95096.56
2022-09-23T18:58:56.968Z,95097.75
2022-09-23T19:01:25.424Z,95093.03
2022-09-23T19:03:56.357Z,95090.91
2022-09-23T19:06:26.665Z,95096.44
2022-09-23T19:08:56.184Z,95098.25
2022-09-23T19:11:25.365Z,95095.13
2022-09-23T19:13:55.419Z,95095.72
2022-09-23T19:16:24.484Z,95092.75
2022-09-23T19:18:52.717Z,95088.19
2022-09-23T19:21:22.196Z,95090.75
2022-09-23T19:23:53.612Z,95081.91
2022-09-23T19:26:24.758Z,95082.53
2022-09-23T19:28:54.497Z,95084.31
2022-09-23T19:31:25.049Z,95083.53
2022-09-23T19:33:56.699Z,95086.09
2022-09-23T19:36:26.722Z,95077.41
2022-09-23T19:38:57.685Z,95085.69
2022-09-23T19:41:29.157Z,95075.03
2022-09-23T19:43:58.618Z,95075.22
2022-09-23T19:46:26.865Z,95071.69
2022-09-23T19:48:55.096Z,95064.78
2022-09-23T19:51:23.671Z,95074.66
2022-09-23T19:53:51.528Z,95075.84
2022-09-23T19:56:21.238Z,95075.06
2022-09-23T19:58:53.375Z,95070.53
2022-09-23T20:01:22.445Z,95069.72
2022-09-23T20:03:51.014Z,95068.75
2022-09-23T20:06:19.467Z,95051.78
2022-09-23T20:08:48.090Z,95067.56
2022-09-23T20:11:18.232Z,95069.13
2022-09-23T20:13:48.614Z,95071.94
2022-09-23T20:16:18.121Z,95063.25
2022-09-23T20:18:47.325Z,95064.63
2022-09-23T20:21:17.027Z,95065.59
2022-09-23T20:23:45.290Z,95068.16
2022-09-23T20:26:30.919Z,95053.94
2022-09-23T20:29:01.349Z,95055.94
2022-09-23T20:31:29.885Z,95055.13
2022-09-23T20:33:59.095Z,95058.72
2022-09-23T20:36:27.878Z,95062.66
2022-09-23T20:38:56.336Z,95054.16
2022-09-23T20:41:24.538Z,95048.44
2022-09-23T20:43:54.250Z,95046.84
2022-09-23T20:46:24.030Z,95045.47
2022-09-23T20:48:51.964Z,95039.53
2022-09-23T20:51:19.813Z,95040.34
2022-09-23T20:53:51.830Z,95047.44
2022-09-23T20:56:20.325Z,95044.69
2022-09-23T20:58:48.747Z,95045.47
2022-09-23T21:01:17.135Z,95033.81
2022-09-23T21:03:48.087Z,95050.38
2022-09-23T21:06:18.945Z,95058.75
2022-09-23T21:08:47.273Z,95051.75
2022-09-23T21:11:16.925Z,95050.13
2022-09-23T21:13:47.744Z,95041.31
2022-09-23T21:16:17.086Z,95043.38
2022-09-23T21:18:48.053Z,95024.28
2022-09-23T21:21:19.397Z,95031.44
2022-09-23T21:23:48.212Z,95028.09
2022-09-23T21:26:18.615Z,95026.91
2022-09-23T21:28:48.348Z,95033.41
2022-09-23T21:31:22.971Z,95038.94
2022-09-23T21:33:55.006Z,95027.50
2022-09-23T21:36:24.834Z,95021.00
2022-09-23T21:38:53.850Z,95020.41
2022-09-23T21:41:21.935Z,95021.19
2022-09-23T21:43:50.215Z,95030.47
2022-09-23T21:46:20.867Z,95022.97
2022-09-23T21:48:53.203Z,95017.28
2022-09-23T21:51:25.478Z,95019.03
2022-09-23T21:53:55.378Z,95018.66
2022-09-23T21:56:24.599Z,95022.97
2022-09-23T21:58:54.041Z,95027.72
2022-09-23T22:01:24.301Z,95018.63
2022-09-23T22:03:53.920Z,95008.41
2022-09-23T22:06:26.885Z,95007.97
2022-09-23T22:08:59.208Z,95000.50
2022-09-23T22:11:47.038Z,95004.25
2022-09-23T22:14:16.446Z,95006.22
2022-09-23T22:16:45.098Z,94997.31
2022-09-23T22:19:14.792Z,95007.75
2022-09-23T22:21:45.800Z,95004.00
2022-09-23T22:24:14.589Z,94998.09
2022-09-23T22:26:44.471Z,95007.75
2022-09-23T22:29:31.609Z,94999.66
2022-09-23T22:32:17.224Z,95008.72
2022-09-23T22:34:50.067Z,94984.03
2022-09-23T22:37:21.735Z,94978.13
2022-09-23T22:39:49.756Z,94998.06
2022-09-23T22:42:18.171Z,94999.06
2022-09-23T22:44:46.038Z,94999.66
2022-09-23T22:47:13.911Z,95006.56
2022-09-23T22:49:42.831Z,95006.38
2022-09-23T22:52:11.411Z,95010.31
2022-09-23T22:54:40.708Z,95000.59
2022-09-23T22:57:09.454Z,95004.56
2022-09-23T22:59:38.278Z,94993.50
2022-09-23T23:02:08.089Z,94992.34
2022-09-23T23:04:37.150Z,94980.28
2022-09-23T23:07:06.941Z,94975.53
2022-09-23T23:09:35.304Z,94965.47
2022-09-23T23:12:05.110Z,94962.69
2022-09-23T23:14:32.932Z,94967.66
2022-09-23T23:17:00.705Z,94965.84
2022-09-23T23:19:28.617Z,94971.97
2022-09-23T23:21:56.361Z,94975.72
2022-09-23T23:24:24.890Z,94981.06
2022-09-23T23:26:53.375Z,94972.97
2022-09-23T23:29:23.802Z,94975.78
2022-09-23T23:31:51.762Z,94975.72
2022-09-23T23:34:21.524Z,94971.19
2022-09-23T23:36:53.511Z,94964.28
2022-09-23T23:39:23.449Z,94960.13
2022-09-23T23:41:53.441Z,94964.28
2022-09-23T23:44:23.260Z,94963.50
2022-09-23T23:46:51.208Z,94961.72
2022-09-23T23:49:19.448Z,94962.34
2022-09-23T23:51:47.892Z,94958.75
2022-09-23T23:54:16.178Z,94960.53
2022-09-23T23:56:44.095Z,94964.53
2022-09-23T23:59:12.438Z,94962.34
